FFT4171 KTTN-KTPA
Flight info
| Callsign | FFT4171 |
|---|---|
| Flight time | N/A |
| Altitude | 36000 |
| Route | STOEN Q75 TEUFL BAAMF DADES2 |
| Aircraft | A320/M-SDE3FGHIRWY/LB1 |
Departure
| Time | 2026-05-07 23:29 |
|---|---|
| Airport | Trenton Mercer Airport (KTTN) |
Arrival
| Time | N/A |
|---|---|
| Airport | Tampa International Airport (KTPA) |
| Time | Latitude | Longitude | Altitude | Speed | Heading |
|---|---|---|---|---|---|
| 2026-05-07 23:16 | 40.27673 | -74.81741 | 201 ft | 0 kts | 275° |
| 2026-05-07 23:19 | 40.27672 | -74.81725 | 212 ft | 3 kts | 265° |
| 2026-05-07 23:19 | 40.27677 | -74.81701 | 211 ft | 3 kts | 235° |
| 2026-05-07 23:20 | 40.27689 | -74.81685 | 213 ft | 2 kts | 198° |
| 2026-05-07 23:20 | 40.27695 | -74.81682 | 213 ft | 1 kts | 190° |
| 2026-05-07 23:23 | 40.27690 | -74.81684 | 202 ft | 1 kts | 200° |
| 2026-05-07 23:23 | 40.27688 | -74.81691 | 202 ft | 1 kts | 240° |
| 2026-05-07 23:24 | 40.27706 | -74.81712 | 211 ft | 7 kts | 9° |
| 2026-05-07 23:24 | 40.27750 | -74.81685 | 211 ft | 8 kts | 26° |
| 2026-05-07 23:24 | 40.27806 | -74.81658 | 213 ft | 9 kts | 12° |
| 2026-05-07 23:24 | 40.27880 | -74.81642 | 211 ft | 12 kts | 8° |
| 2026-05-07 23:25 | 40.27971 | -74.81626 | 215 ft | 14 kts | 357° |
| 2026-05-07 23:25 | 40.28053 | -74.81687 | 216 ft | 14 kts | 326° |
| 2026-05-07 23:25 | 40.28129 | -74.81656 | 217 ft | 15 kts | 71° |
| 2026-05-07 23:25 | 40.28196 | -74.81522 | 219 ft | 19 kts | 48° |
| 2026-05-07 23:26 | 40.28147 | -74.81401 | 214 ft | 20 kts | 142° |
| 2026-05-07 23:26 | 40.28082 | -74.81319 | 217 ft | 20 kts | 119° |
| 2026-05-07 23:26 | 40.28029 | -74.81069 | 214 ft | 22 kts | 109° |
| 2026-05-07 23:26 | 40.28052 | -74.80908 | 213 ft | 19 kts | 43° |
| 2026-05-07 23:27 | 40.28173 | -74.80693 | 218 ft | 9 kts | 118° |
| 2026-05-07 23:27 | 40.28139 | -74.80644 | 216 ft | 6 kts | 135° |
| 2026-05-07 23:27 | 40.28111 | -74.80612 | 216 ft | 5 kts | 152° |
| 2026-05-07 23:28 | 40.28085 | -74.80632 | 221 ft | 0 kts | 227° |
| 2026-05-07 23:28 | 40.27939 | -74.80834 | 212 ft | 73 kts | 226° |
| 2026-05-07 23:28 | 40.27409 | -74.81566 | 202 ft | 145 kts | 226° |
| 2026-05-07 23:29 | 40.26656 | -74.82611 | 667 ft | 161 kts | 227° |
| 2026-05-07 23:29 | 40.25900 | -74.83676 | 1511 ft | 158 kts | 229° |
| 2026-05-07 23:29 | 40.25133 | -74.84751 | 2159 ft | 168 kts | 228° |
| 2026-05-07 23:29 | 40.24300 | -74.85924 | 2464 ft | 183 kts | 230° |
| 2026-05-07 23:30 | 40.23547 | -74.87337 | 2707 ft | 200 kts | 242° |
| 2026-05-07 23:30 | 40.22833 | -74.89017 | 2939 ft | 224 kts | 243° |
| 2026-05-07 23:30 | 40.22058 | -74.90891 | 3294 ft | 248 kts | 243° |
| 2026-05-07 23:30 | 40.21218 | -74.92927 | 3905 ft | 259 kts | 243° |
| 2026-05-07 23:31 | 40.20348 | -74.95008 | 4726 ft | 263 kts | 243° |
| 2026-05-07 23:31 | 40.19461 | -74.97113 | 5557 ft | 265 kts | 242° |
| 2026-05-07 23:31 | 40.18561 | -74.99236 | 6381 ft | 268 kts | 243° |
| 2026-05-07 23:31 | 40.17654 | -75.01372 | 7231 ft | 269 kts | 243° |
| 2026-05-07 23:32 | 40.16747 | -75.03500 | 8124 ft | 267 kts | 243° |
| 2026-05-07 23:32 | 40.15843 | -75.05617 | 9039 ft | 266 kts | 244° |
| 2026-05-07 23:32 | 40.14946 | -75.07718 | 9957 ft | 263 kts | 244° |
| 2026-05-07 23:32 | 40.14030 | -75.09876 | 10284 ft | 284 kts | 244° |
| 2026-05-07 23:33 | 40.13038 | -75.12224 | 10446 ft | 306 kts | 244° |
| 2026-05-07 23:33 | 40.11985 | -75.14702 | 10926 ft | 315 kts | 243° |
| 2026-05-07 23:33 | 40.10912 | -75.17209 | 11632 ft | 317 kts | 243° |
| 2026-05-07 23:33 | 40.09836 | -75.19719 | 12428 ft | 316 kts | 242° |
| 2026-05-07 23:34 | 40.08763 | -75.22216 | 13234 ft | 315 kts | 242° |
| 2026-05-07 23:34 | 40.07688 | -75.24712 | 13970 ft | 315 kts | 242° |
| 2026-05-07 23:34 | 40.06614 | -75.27209 | 14610 ft | 316 kts | 242° |
| 2026-05-07 23:34 | 40.05540 | -75.29713 | 15220 ft | 318 kts | 242° |
| 2026-05-07 23:35 | 40.04456 | -75.32239 | 15824 ft | 320 kts | 242° |
| 2026-05-07 23:35 | 40.03365 | -75.34775 | 16414 ft | 322 kts | 242° |
| 2026-05-07 23:35 | 40.02265 | -75.37329 | 17019 ft | 324 kts | 242° |
| 2026-05-07 23:35 | 40.01159 | -75.39897 | 17596 ft | 326 kts | 242° |
| 2026-05-07 23:36 | 40.00043 | -75.42484 | 18139 ft | 328 kts | 242° |
| 2026-05-07 23:36 | 39.98917 | -75.45090 | 18602 ft | 331 kts | 242° |
| 2026-05-07 23:36 | 39.97782 | -75.47718 | 19029 ft | 334 kts | 242° |
| 2026-05-07 23:36 | 39.96639 | -75.50366 | 19494 ft | 336 kts | 243° |
| 2026-05-07 23:37 | 39.95488 | -75.53029 | 19962 ft | 338 kts | 243° |
| 2026-05-07 23:37 | 39.94331 | -75.55705 | 20436 ft | 340 kts | 243° |
| 2026-05-07 23:37 | 39.93167 | -75.58388 | 20887 ft | 342 kts | 243° |
| 2026-05-07 23:37 | 39.92004 | -75.61062 | 21328 ft | 344 kts | 243° |
| 2026-05-07 23:38 | 39.90822 | -75.63783 | 21780 ft | 345 kts | 243° |
| 2026-05-07 23:38 | 39.89636 | -75.66511 | 22219 ft | 347 kts | 243° |
| 2026-05-07 23:38 | 39.88443 | -75.69255 | 22646 ft | 349 kts | 243° |
| 2026-05-07 23:38 | 39.87241 | -75.72018 | 23041 ft | 352 kts | 243° |
| 2026-05-07 23:39 | 39.86030 | -75.74793 | 23464 ft | 354 kts | 243° |
| 2026-05-07 23:39 | 39.84811 | -75.77583 | 23807 ft | 355 kts | 243° |
| 2026-05-07 23:39 | 39.83507 | -75.80332 | 24189 ft | 359 kts | 237° |
| 2026-05-07 23:39 | 39.81940 | -75.82873 | 24540 ft | 361 kts | 236° |
| 2026-05-07 23:40 | 39.80352 | -75.85404 | 24901 ft | 362 kts | 236° |
| 2026-05-07 23:40 | 39.78757 | -75.87943 | 25245 ft | 363 kts | 236° |
| 2026-05-07 23:40 | 39.77159 | -75.90483 | 25592 ft | 364 kts | 236° |
| 2026-05-07 23:40 | 39.75554 | -75.93029 | 25944 ft | 365 kts | 236° |
| 2026-05-07 23:41 | 39.73944 | -75.95579 | 26289 ft | 365 kts | 236° |
| 2026-05-07 23:41 | 39.72335 | -75.98138 | 26615 ft | 367 kts | 236° |
| 2026-05-07 23:41 | 39.70720 | -76.00709 | 26958 ft | 368 kts | 236° |
| 2026-05-07 23:41 | 39.69099 | -76.03281 | 27278 ft | 369 kts | 236° |
| 2026-05-07 23:42 | 39.67494 | -76.05827 | 27582 ft | 370 kts | 236° |
| 2026-05-07 23:42 | 39.65860 | -76.08413 | 27901 ft | 371 kts | 236° |
| 2026-05-07 23:42 | 39.64219 | -76.11001 | 28191 ft | 372 kts | 236° |
| 2026-05-07 23:42 | 39.62574 | -76.13595 | 28447 ft | 373 kts | 237° |
| 2026-05-07 23:43 | 39.60922 | -76.16201 | 28738 ft | 374 kts | 237° |
| 2026-05-07 23:43 | 39.59264 | -76.18816 | 29034 ft | 375 kts | 237° |
| 2026-05-07 23:43 | 39.57593 | -76.21420 | 29320 ft | 376 kts | 236° |
| 2026-05-07 23:43 | 39.55912 | -76.24008 | 29732 ft | 374 kts | 236° |
| 2026-05-07 23:44 | 39.54232 | -76.26575 | 30118 ft | 372 kts | 236° |
| 2026-05-07 23:44 | 39.52559 | -76.29128 | 30442 ft | 371 kts | 237° |
| 2026-05-07 23:44 | 39.50893 | -76.31670 | 30758 ft | 370 kts | 237° |
| 2026-05-07 23:44 | 39.49233 | -76.34207 | 31065 ft | 369 kts | 237° |
| 2026-05-07 23:45 | 39.47580 | -76.36738 | 31377 ft | 367 kts | 237° |
| 2026-05-07 23:45 | 39.45919 | -76.39249 | 31685 ft | 367 kts | 236° |
| 2026-05-07 23:45 | 39.44178 | -76.41678 | 31917 ft | 369 kts | 234° |
| 2026-05-07 23:45 | 39.42377 | -76.44043 | 32198 ft | 370 kts | 233° |
| 2026-05-07 23:46 | 39.40544 | -76.46381 | 32484 ft | 370 kts | 233° |
| 2026-05-07 23:46 | 39.38710 | -76.48709 | 32759 ft | 369 kts | 233° |
| 2026-05-07 23:46 | 39.36890 | -76.51033 | 33111 ft | 368 kts | 233° |
| 2026-05-07 23:46 | 39.35083 | -76.53364 | 33453 ft | 366 kts | 234° |
| 2026-05-07 23:47 | 39.33293 | -76.55691 | 33768 ft | 364 kts | 234° |
| 2026-05-07 23:47 | 39.31514 | -76.58013 | 34032 ft | 363 kts | 234° |
| 2026-05-07 23:47 | 39.29737 | -76.60338 | 34235 ft | 363 kts | 234° |
| 2026-05-07 23:47 | 39.27961 | -76.62654 | 34441 ft | 364 kts | 234° |
| 2026-05-07 23:48 | 39.26176 | -76.64973 | 34642 ft | 364 kts | 234° |
| 2026-05-07 23:48 | 39.24392 | -76.67291 | 34765 ft | 365 kts | 234° |
| 2026-05-07 23:48 | 39.22602 | -76.69620 | 34932 ft | 366 kts | 234° |
| 2026-05-07 23:48 | 39.20812 | -76.71948 | 35107 ft | 366 kts | 233° |
| 2026-05-07 23:49 | 39.19019 | -76.74281 | 35288 ft | 366 kts | 233° |
| 2026-05-07 23:49 | 39.17248 | -76.76580 | 35467 ft | 367 kts | 233° |
| 2026-05-07 23:49 | 39.15449 | -76.78913 | 35696 ft | 367 kts | 233° |
| 2026-05-07 23:49 | 39.13652 | -76.81240 | 35867 ft | 367 kts | 233° |
| 2026-05-07 23:50 | 39.10034 | -76.85923 | 35934 ft | 370 kts | 233° |
| 2026-05-07 23:50 | 39.06398 | -76.90609 | 35859 ft | 369 kts | 233° |
| 2026-05-07 23:51 | 39.02756 | -76.95297 | 35915 ft | 371 kts | 233° |
| 2026-05-07 23:51 | 38.99107 | -76.99998 | 35915 ft | 371 kts | 233° |
| 2026-05-07 23:52 | 38.95459 | -77.04696 | 35915 ft | 371 kts | 233° |
| 2026-05-07 23:52 | 38.91809 | -77.09391 | 35897 ft | 371 kts | 233° |
| 2026-05-07 23:53 | 38.88154 | -77.14080 | 35899 ft | 372 kts | 233° |
| 2026-05-07 23:53 | 38.84494 | -77.18768 | 35859 ft | 372 kts | 233° |
| 2026-05-07 23:54 | 38.80834 | -77.23453 | 35874 ft | 372 kts | 233° |
| 2026-05-07 23:54 | 38.77191 | -77.28103 | 35875 ft | 372 kts | 233° |
| 2026-05-07 23:55 | 38.73521 | -77.32785 | 35880 ft | 372 kts | 233° |
| 2026-05-07 23:55 | 38.69743 | -77.37355 | 35908 ft | 375 kts | 231° |
| 2026-05-07 23:56 | 38.65842 | -77.41795 | 35881 ft | 375 kts | 231° |
| 2026-05-07 23:56 | 38.61938 | -77.46232 | 35908 ft | 376 kts | 231° |
| 2026-05-07 23:57 | 38.58053 | -77.50697 | 35926 ft | 375 kts | 231° |
| 2026-05-07 23:57 | 38.54175 | -77.55168 | 35928 ft | 375 kts | 231° |
| 2026-05-07 23:58 | 38.50300 | -77.59629 | 35974 ft | 375 kts | 231° |
| 2026-05-07 23:58 | 38.46421 | -77.64078 | 35904 ft | 374 kts | 232° |
| 2026-05-07 23:59 | 38.42555 | -77.68504 | 35931 ft | 373 kts | 231° |
| 2026-05-07 23:59 | 38.38699 | -77.72913 | 35936 ft | 371 kts | 231° |
| 2026-05-08 00:00 | 38.34882 | -77.77278 | 35942 ft | 371 kts | 231° |
| 2026-05-08 00:00 | 38.31044 | -77.81656 | 35946 ft | 370 kts | 231° |
| 2026-05-08 00:01 | 38.27209 | -77.86020 | 35948 ft | 370 kts | 231° |
| 2026-05-08 00:01 | 38.23375 | -77.90372 | 35918 ft | 368 kts | 232° |
| 2026-05-08 00:02 | 38.19565 | -77.94697 | 35935 ft | 366 kts | 232° |
| 2026-05-08 00:02 | 38.15769 | -77.99007 | 35977 ft | 365 kts | 232° |
| 2026-05-08 00:03 | 38.11987 | -78.03302 | 35963 ft | 365 kts | 232° |
| 2026-05-08 00:03 | 38.08199 | -78.07580 | 35960 ft | 364 kts | 232° |
| 2026-05-08 00:04 | 38.04415 | -78.11849 | 35890 ft | 364 kts | 233° |
| 2026-05-08 00:04 | 38.00624 | -78.16082 | 35940 ft | 364 kts | 231° |